DLA9PM EDDM-LIMJ
Flight info
| Callsign | DLA9PM |
|---|---|
| Flight time | 0h 58m |
| Altitude | 37000 |
| Route | TURBU6E TURBU Y107 TOBSO DCT BAKOR DCT OSKOR DCT PIKOT |
| Aircraft | E190/M-SDE3GILORVW/S |
Departure
| Time | 2026-04-17 07:45 |
|---|---|
| Airport | Munich Airport (EDDM) |
Arrival
| Time | 2026-04-17 08:44 |
|---|---|
| Airport | Genoa Cristoforo Colombo Airport (LIMJ) |
| Time | Latitude | Longitude | Altitude | Speed | Heading |
|---|---|---|---|---|---|
| 2026-04-17 07:33 | 48.35504 | 11.80126 | 1457 ft | 0 kts | 173° |
| 2026-04-17 07:35 | 48.35503 | 11.80126 | 1457 ft | 1 kts | 173° |
| 2026-04-17 07:35 | 48.35479 | 11.80130 | 1466 ft | 4 kts | 173° |
| 2026-04-17 07:36 | 48.35454 | 11.80135 | 1466 ft | 7 kts | 173° |
| 2026-04-17 07:36 | 48.35398 | 11.80148 | 1466 ft | 9 kts | 165° |
| 2026-04-17 07:36 | 48.35304 | 11.80171 | 1466 ft | 12 kts | 174° |
| 2026-04-17 07:36 | 48.35212 | 11.80186 | 1466 ft | 14 kts | 179° |
| 2026-04-17 07:37 | 48.35164 | 11.80128 | 1466 ft | 15 kts | 252° |
| 2026-04-17 07:37 | 48.35152 | 11.79967 | 1461 ft | 17 kts | 264° |
| 2026-04-17 07:37 | 48.35139 | 11.79781 | 1462 ft | 19 kts | 264° |
| 2026-04-17 07:37 | 48.35126 | 11.79589 | 1461 ft | 17 kts | 264° |
| 2026-04-17 07:38 | 48.35045 | 11.79525 | 1466 ft | 16 kts | 172° |
| 2026-04-17 07:38 | 48.34929 | 11.79547 | 1466 ft | 18 kts | 174° |
| 2026-04-17 07:38 | 48.34809 | 11.79555 | 1465 ft | 12 kts | 204° |
| 2026-04-17 07:38 | 48.34781 | 11.79451 | 1463 ft | 12 kts | 263° |
| 2026-04-17 07:39 | 48.34772 | 11.79319 | 1466 ft | 13 kts | 264° |
| 2026-04-17 07:39 | 48.34761 | 11.79165 | 1466 ft | 16 kts | 263° |
| 2026-04-17 07:39 | 48.34746 | 11.78985 | 1466 ft | 18 kts | 263° |
| 2026-04-17 07:39 | 48.34731 | 11.78781 | 1466 ft | 21 kts | 263° |
| 2026-04-17 07:40 | 48.34714 | 11.78552 | 1465 ft | 23 kts | 264° |
| 2026-04-17 07:40 | 48.34695 | 11.78302 | 1460 ft | 25 kts | 263° |
| 2026-04-17 07:40 | 48.34674 | 11.78041 | 1465 ft | 26 kts | 263° |
| 2026-04-17 07:40 | 48.34652 | 11.77771 | 1466 ft | 26 kts | 263° |
| 2026-04-17 07:41 | 48.34631 | 11.77494 | 1465 ft | 27 kts | 263° |
| 2026-04-17 07:41 | 48.34610 | 11.77212 | 1465 ft | 28 kts | 264° |
| 2026-04-17 07:41 | 48.34587 | 11.76921 | 1465 ft | 28 kts | 264° |
| 2026-04-17 07:41 | 48.34565 | 11.76625 | 1460 ft | 29 kts | 263° |
| 2026-04-17 07:42 | 48.34543 | 11.76339 | 1465 ft | 25 kts | 263° |
| 2026-04-17 07:42 | 48.34525 | 11.76086 | 1465 ft | 25 kts | 264° |
| 2026-04-17 07:42 | 48.34503 | 11.75825 | 1465 ft | 26 kts | 263° |
| 2026-04-17 07:42 | 48.34482 | 11.75554 | 1465 ft | 26 kts | 263° |
| 2026-04-17 07:43 | 48.34464 | 11.75323 | 1461 ft | 20 kts | 263° |
| 2026-04-17 07:43 | 48.34450 | 11.75137 | 1457 ft | 16 kts | 263° |
| 2026-04-17 07:43 | 48.34374 | 11.75059 | 1465 ft | 14 kts | 176° |
| 2026-04-17 07:43 | 48.34277 | 11.75078 | 1460 ft | 14 kts | 173° |
| 2026-04-17 07:44 | 48.34175 | 11.75098 | 1461 ft | 15 kts | 172° |
| 2026-04-17 07:44 | 48.34089 | 11.75154 | 1462 ft | 12 kts | 124° |
| 2026-04-17 07:44 | 48.34079 | 11.75270 | 1468 ft | 11 kts | 83° |
| 2026-04-17 07:44 | 48.34101 | 11.75551 | 1471 ft | 61 kts | 83° |
| 2026-04-17 07:45 | 48.34180 | 11.76563 | 1465 ft | 132 kts | 83° |
| 2026-04-17 07:45 | 48.34304 | 11.78154 | 1782 ft | 167 kts | 84° |
| 2026-04-17 07:45 | 48.34429 | 11.79968 | 2573 ft | 184 kts | 84° |
| 2026-04-17 07:45 | 48.34585 | 11.81922 | 3349 ft | 194 kts | 83° |
| 2026-04-17 07:46 | 48.34749 | 11.84005 | 4003 ft | 211 kts | 84° |
| 2026-04-17 07:46 | 48.34917 | 11.86316 | 4636 ft | 230 kts | 84° |
| 2026-04-17 07:46 | 48.35102 | 11.88764 | 5547 ft | 238 kts | 84° |
| 2026-04-17 07:46 | 48.35291 | 11.91292 | 6391 ft | 249 kts | 84° |
| 2026-04-17 07:47 | 48.35404 | 11.93909 | 7217 ft | 253 kts | 96° |
| 2026-04-17 07:47 | 48.34754 | 11.96360 | 8024 ft | 258 kts | 128° |
| 2026-04-17 07:47 | 48.33420 | 11.98192 | 8873 ft | 261 kts | 140° |
| 2026-04-17 07:47 | 48.31977 | 11.99877 | 9700 ft | 265 kts | 142° |
| 2026-04-17 07:48 | 48.30487 | 12.01541 | 10482 ft | 269 kts | 145° |
| 2026-04-17 07:48 | 48.28730 | 12.02754 | 10894 ft | 289 kts | 171° |
| 2026-04-17 07:48 | 48.26681 | 12.02839 | 11493 ft | 299 kts | 183° |
| 2026-04-17 07:48 | 48.24577 | 12.02672 | 12261 ft | 306 kts | 184° |
| 2026-04-17 07:49 | 48.22427 | 12.02537 | 13114 ft | 312 kts | 184° |
| 2026-04-17 07:49 | 48.20241 | 12.02407 | 14000 ft | 317 kts | 184° |
| 2026-04-17 07:49 | 48.18044 | 12.02268 | 14866 ft | 321 kts | 184° |
| 2026-04-17 07:49 | 48.15795 | 12.02121 | 15762 ft | 325 kts | 185° |
| 2026-04-17 07:50 | 48.13516 | 12.01966 | 16627 ft | 330 kts | 185° |
| 2026-04-17 07:50 | 48.11201 | 12.01799 | 17432 ft | 336 kts | 185° |
| 2026-04-17 07:50 | 48.08851 | 12.01618 | 18248 ft | 341 kts | 185° |
| 2026-04-17 07:50 | 48.06467 | 12.01269 | 18800 ft | 352 kts | 193° |
| 2026-04-17 07:51 | 48.04054 | 12.00337 | 19229 ft | 365 kts | 199° |
| 2026-04-17 07:51 | 48.01580 | 11.99235 | 19780 ft | 375 kts | 199° |
| 2026-04-17 07:51 | 47.99050 | 11.98142 | 20460 ft | 381 kts | 199° |
| 2026-04-17 07:51 | 47.96483 | 11.97044 | 21156 ft | 385 kts | 199° |
| 2026-04-17 07:52 | 47.93888 | 11.95936 | 21805 ft | 390 kts | 199° |
| 2026-04-17 07:52 | 47.91238 | 11.94935 | 22412 ft | 397 kts | 191° |
| 2026-04-17 07:52 | 47.88461 | 11.94667 | 23024 ft | 403 kts | 182° |
| 2026-04-17 07:52 | 47.85679 | 11.94662 | 23625 ft | 408 kts | 182° |
| 2026-04-17 07:53 | 47.82822 | 11.94629 | 24184 ft | 411 kts | 182° |
| 2026-04-17 07:53 | 47.79944 | 11.94591 | 24729 ft | 415 kts | 182° |
| 2026-04-17 07:53 | 47.77038 | 11.94544 | 25270 ft | 419 kts | 183° |
| 2026-04-17 07:53 | 47.74113 | 11.94495 | 25809 ft | 422 kts | 183° |
| 2026-04-17 07:54 | 47.71158 | 11.94445 | 26344 ft | 426 kts | 183° |
| 2026-04-17 07:54 | 47.68180 | 11.94402 | 26839 ft | 429 kts | 183° |
| 2026-04-17 07:54 | 47.65187 | 11.94356 | 27348 ft | 432 kts | 183° |
| 2026-04-17 07:54 | 47.62167 | 11.94307 | 27851 ft | 434 kts | 183° |
| 2026-04-17 07:55 | 47.59126 | 11.94260 | 28255 ft | 438 kts | 183° |
| 2026-04-17 07:55 | 47.56067 | 11.94212 | 28732 ft | 441 kts | 183° |
| 2026-04-17 07:55 | 47.52979 | 11.94160 | 29152 ft | 444 kts | 183° |
| 2026-04-17 07:55 | 47.49871 | 11.94111 | 29640 ft | 446 kts | 183° |
| 2026-04-17 07:56 | 47.46796 | 11.94061 | 30052 ft | 449 kts | 183° |
| 2026-04-17 07:56 | 47.43673 | 11.94006 | 30506 ft | 450 kts | 185° |
| 2026-04-17 07:56 | 47.40556 | 11.93571 | 30826 ft | 450 kts | 191° |
| 2026-04-17 07:56 | 47.37422 | 11.92931 | 30944 ft | 458 kts | 191° |
| 2026-04-17 07:57 | 47.34237 | 11.92285 | 31153 ft | 463 kts | 191° |
| 2026-04-17 07:57 | 47.31041 | 11.91645 | 31550 ft | 463 kts | 191° |
| 2026-04-17 07:57 | 47.27860 | 11.91014 | 32025 ft | 460 kts | 191° |
| 2026-04-17 07:57 | 47.24695 | 11.90391 | 32490 ft | 458 kts | 191° |
| 2026-04-17 07:58 | 47.21540 | 11.89770 | 32938 ft | 456 kts | 191° |
| 2026-04-17 07:58 | 47.18398 | 11.89152 | 33339 ft | 455 kts | 191° |
| 2026-04-17 07:58 | 47.15265 | 11.88538 | 33721 ft | 454 kts | 191° |
| 2026-04-17 07:58 | 47.12135 | 11.87925 | 34098 ft | 453 kts | 192° |
| 2026-04-17 07:59 | 47.09005 | 11.87310 | 34414 ft | 452 kts | 192° |
| 2026-04-17 07:59 | 47.05889 | 11.86699 | 34721 ft | 452 kts | 191° |
| 2026-04-17 07:59 | 47.02778 | 11.86096 | 35028 ft | 451 kts | 191° |
| 2026-04-17 07:59 | 46.99700 | 11.85291 | 35331 ft | 448 kts | 196° |
| 2026-04-17 08:00 | 46.96653 | 11.84313 | 35617 ft | 447 kts | 197° |
| 2026-04-17 08:00 | 46.93618 | 11.83336 | 35912 ft | 446 kts | 196° |
| 2026-04-17 08:00 | 46.90626 | 11.82380 | 36204 ft | 445 kts | 196° |
| 2026-04-17 08:00 | 46.87600 | 11.81418 | 36508 ft | 445 kts | 196° |
| 2026-04-17 08:01 | 46.84577 | 11.80451 | 36802 ft | 444 kts | 196° |
| 2026-04-17 08:01 | 46.81547 | 11.79488 | 37109 ft | 443 kts | 196° |
| 2026-04-17 08:01 | 46.78538 | 11.78535 | 37320 ft | 444 kts | 196° |
| 2026-04-17 08:01 | 46.75509 | 11.77574 | 37309 ft | 447 kts | 195° |
| 2026-04-17 08:02 | 46.69409 | 11.75647 | 37328 ft | 449 kts | 195° |
| 2026-04-17 08:02 | 46.63309 | 11.73636 | 37205 ft | 446 kts | 202° |
| 2026-04-17 08:03 | 46.60587 | 11.71747 | 37225 ft | 436 kts | 220° |
| 2026-04-17 08:03 | 46.58392 | 11.68779 | 37264 ft | 429 kts | 233° |
| 2026-04-17 08:03 | 46.54551 | 11.62139 | 37213 ft | 429 kts | 234° |
| 2026-04-17 08:04 | 46.50712 | 11.55499 | 37207 ft | 429 kts | 234° |
| 2026-04-17 08:04 | 46.46860 | 11.48879 | 37210 ft | 429 kts | 234° |
| 2026-04-17 08:05 | 46.42996 | 11.42265 | 37197 ft | 430 kts | 234° |
| 2026-04-17 08:05 | 46.39131 | 11.35670 | 37224 ft | 430 kts | 233° |
| 2026-04-17 08:06 | 46.35278 | 11.29107 | 37222 ft | 430 kts | 233° |
| 2026-04-17 08:06 | 46.31407 | 11.22533 | 37248 ft | 429 kts | 233° |
| 2026-04-17 08:07 | 46.27533 | 11.15970 | 37266 ft | 429 kts | 233° |
| 2026-04-17 08:07 | 46.23655 | 11.09416 | 37260 ft | 429 kts | 233° |
| 2026-04-17 08:08 | 46.19785 | 11.02885 | 37260 ft | 429 kts | 233° |
| 2026-04-17 08:08 | 46.15903 | 10.96361 | 37263 ft | 428 kts | 233° |
| 2026-04-17 08:09 | 46.12044 | 10.89884 | 37258 ft | 427 kts | 233° |
| 2026-04-17 08:09 | 46.08158 | 10.83378 | 37256 ft | 429 kts | 233° |
| 2026-04-17 08:10 | 46.04259 | 10.76873 | 37248 ft | 429 kts | 233° |
| 2026-04-17 08:10 | 46.00350 | 10.70357 | 37241 ft | 430 kts | 233° |
| 2026-04-17 08:11 | 45.96439 | 10.63864 | 37221 ft | 429 kts | 232° |
| 2026-04-17 08:11 | 45.92543 | 10.57391 | 37221 ft | 428 kts | 233° |
| 2026-04-17 08:12 | 45.88648 | 10.50942 | 37216 ft | 427 kts | 233° |
| 2026-04-17 08:12 | 45.84764 | 10.44536 | 37205 ft | 428 kts | 233° |
| 2026-04-17 08:13 | 45.80852 | 10.38086 | 37201 ft | 429 kts | 233° |
| 2026-04-17 08:14 | 45.74963 | 10.28398 | 37185 ft | 430 kts | 233° |
| 2026-04-17 08:14 | 45.71033 | 10.21945 | 37165 ft | 430 kts | 232° |
| 2026-04-17 08:15 | 45.67091 | 10.15496 | 37169 ft | 431 kts | 232° |
| 2026-04-17 08:15 | 45.62551 | 10.09892 | 37205 ft | 439 kts | 214° |
| 2026-04-17 08:16 | 45.57252 | 10.05520 | 37160 ft | 439 kts | 213° |
| 2026-04-17 08:16 | 45.51966 | 10.01135 | 37141 ft | 439 kts | 213° |
| 2026-04-17 08:17 | 45.46685 | 9.96747 | 37160 ft | 439 kts | 214° |
| 2026-04-17 08:17 | 45.41400 | 9.92358 | 37148 ft | 439 kts | 213° |
| 2026-04-17 08:18 | 45.36151 | 9.88004 | 37158 ft | 439 kts | 213° |
| 2026-04-17 08:18 | 45.30865 | 9.83628 | 37153 ft | 440 kts | 213° |
| 2026-04-17 08:19 | 45.25579 | 9.79261 | 37152 ft | 440 kts | 213° |
| 2026-04-17 08:19 | 45.20300 | 9.74881 | 37155 ft | 438 kts | 217° |
| 2026-04-17 08:19 | 45.17984 | 9.72137 | 37169 ft | 431 kts | 232° |
| 2026-04-17 08:20 | 45.16109 | 9.68841 | 37187 ft | 429 kts | 236° |
| 2026-04-17 08:20 | 45.12474 | 9.62124 | 37158 ft | 429 kts | 236° |
| 2026-04-17 08:21 | 45.08836 | 9.55433 | 37160 ft | 429 kts | 236° |
| 2026-04-17 08:21 | 45.07001 | 9.52075 | 36742 ft | 430 kts | 236° |
| 2026-04-17 08:21 | 45.05185 | 9.48766 | 36534 ft | 424 kts | 236° |
| 2026-04-17 08:21 | 45.03360 | 9.45439 | 35875 ft | 429 kts | 236° |
| 2026-04-17 08:22 | 45.02147 | 9.43240 | 35521 ft | 428 kts | 236° |
| 2026-04-17 08:22 | 44.99722 | 9.38836 | 34715 ft | 428 kts | 236° |
| 2026-04-17 08:22 | 44.97892 | 9.35517 | 34141 ft | 428 kts | 236° |
| 2026-04-17 08:22 | 44.96061 | 9.32197 | 33552 ft | 428 kts | 236° |
| 2026-04-17 08:23 | 44.94236 | 9.28879 | 32960 ft | 429 kts | 236° |
| 2026-04-17 08:23 | 44.93003 | 9.26619 | 32584 ft | 430 kts | 236° |
| 2026-04-17 08:23 | 44.91169 | 9.23272 | 32004 ft | 432 kts | 236° |
| 2026-04-17 08:23 | 44.89329 | 9.19918 | 31422 ft | 433 kts | 235° |
| 2026-04-17 08:24 | 44.87479 | 9.16553 | 30816 ft | 435 kts | 235° |
| 2026-04-17 08:24 | 44.85650 | 9.13229 | 30253 ft | 435 kts | 235° |
| 2026-04-17 08:24 | 44.83792 | 9.09860 | 29641 ft | 435 kts | 234° |
| 2026-04-17 08:24 | 44.81925 | 9.06486 | 29057 ft | 439 kts | 234° |
| 2026-04-17 08:25 | 44.80050 | 9.03098 | 28464 ft | 439 kts | 234° |
| 2026-04-17 08:25 | 44.78171 | 8.99714 | 27892 ft | 435 kts | 234° |
| 2026-04-17 08:25 | 44.76310 | 8.96365 | 27276 ft | 433 kts | 234° |
| 2026-04-17 08:25 | 44.74455 | 8.93029 | 26702 ft | 429 kts | 234° |
| 2026-04-17 08:26 | 44.72620 | 8.89734 | 26114 ft | 427 kts | 234° |
| 2026-04-17 08:26 | 44.70792 | 8.86458 | 25534 ft | 424 kts | 234° |
| 2026-04-17 08:26 | 44.68996 | 8.83245 | 24989 ft | 421 kts | 234° |
| 2026-04-17 08:26 | 44.67184 | 8.80007 | 24369 ft | 419 kts | 234° |
| 2026-04-17 08:27 | 44.65027 | 8.77245 | 23459 ft | 422 kts | 211° |
| 2026-04-17 08:27 | 44.62323 | 8.75763 | 23024 ft | 419 kts | 193° |
| 2026-04-17 08:27 | 44.59427 | 8.75554 | 22513 ft | 418 kts | 173° |
| 2026-04-17 08:27 | 44.56662 | 8.76725 | 21957 ft | 416 kts | 152° |
| 2026-04-17 08:28 | 44.54413 | 8.79193 | 21412 ft | 411 kts | 129° |
| 2026-04-17 08:28 | 44.52860 | 8.82510 | 20899 ft | 405 kts | 117° |
| 2026-04-17 08:28 | 44.51517 | 8.85977 | 20320 ft | 402 kts | 117° |
| 2026-04-17 08:28 | 44.50165 | 8.89386 | 19810 ft | 399 kts | 118° |
| 2026-04-17 08:29 | 44.48804 | 8.92760 | 19263 ft | 395 kts | 118° |
| 2026-04-17 08:29 | 44.47464 | 8.96044 | 18752 ft | 392 kts | 118° |
| 2026-04-17 08:29 | 44.46109 | 8.99345 | 18213 ft | 389 kts | 118° |
| 2026-04-17 08:29 | 44.44765 | 9.02609 | 17727 ft | 385 kts | 119° |
| 2026-04-17 08:30 | 44.43429 | 9.05838 | 17205 ft | 382 kts | 119° |
| 2026-04-17 08:30 | 44.41862 | 9.08806 | 16714 ft | 379 kts | 135° |
| 2026-04-17 08:30 | 44.39846 | 9.11183 | 16227 ft | 378 kts | 142° |
| 2026-04-17 08:30 | 44.37759 | 9.13418 | 15708 ft | 375 kts | 141° |
| 2026-04-17 08:31 | 44.35711 | 9.15650 | 15217 ft | 372 kts | 141° |
| 2026-04-17 08:31 | 44.33694 | 9.17865 | 14723 ft | 365 kts | 141° |
| 2026-04-17 08:31 | 44.31729 | 9.20042 | 14238 ft | 356 kts | 140° |
| 2026-04-17 08:31 | 44.29836 | 9.22206 | 13740 ft | 348 kts | 140° |
| 2026-04-17 08:32 | 44.27988 | 9.24312 | 13301 ft | 338 kts | 140° |
| 2026-04-17 08:32 | 44.26190 | 9.26361 | 12872 ft | 329 kts | 140° |
| 2026-04-17 08:32 | 44.24431 | 9.28358 | 12432 ft | 323 kts | 140° |
| 2026-04-17 08:32 | 44.22711 | 9.30312 | 12014 ft | 316 kts | 140° |
| 2026-04-17 08:33 | 44.21035 | 9.32215 | 11558 ft | 312 kts | 141° |
| 2026-04-17 08:33 | 44.19160 | 9.33633 | 11164 ft | 306 kts | 166° |
| 2026-04-17 08:33 | 44.17071 | 9.33634 | 10794 ft | 300 kts | 196° |
| 2026-04-17 08:33 | 44.15304 | 9.32224 | 10459 ft | 292 kts | 225° |
| 2026-04-17 08:34 | 44.13992 | 9.30106 | 10089 ft | 287 kts | 231° |
| 2026-04-17 08:34 | 44.12798 | 9.27905 | 9616 ft | 283 kts | 245° |
| 2026-04-17 08:34 | 44.12447 | 9.25303 | 9281 ft | 271 kts | 278° |
| 2026-04-17 08:34 | 44.13104 | 9.22919 | 8976 ft | 263 kts | 307° |
| 2026-04-17 08:35 | 44.14354 | 9.21054 | 8524 ft | 265 kts | 316° |
| 2026-04-17 08:35 | 44.15660 | 9.19261 | 8150 ft | 263 kts | 315° |
| 2026-04-17 08:35 | 44.17043 | 9.17625 | 7766 ft | 260 kts | 331° |
| 2026-04-17 08:35 | 44.18757 | 9.16995 | 7425 ft | 254 kts | 357° |
| 2026-04-17 08:36 | 44.20492 | 9.16961 | 7099 ft | 246 kts | 359° |
| 2026-04-17 08:36 | 44.22185 | 9.16929 | 6777 ft | 239 kts | 359° |
| 2026-04-17 08:36 | 44.23828 | 9.16886 | 6468 ft | 233 kts | 358° |
| 2026-04-17 08:36 | 44.25434 | 9.16836 | 6181 ft | 230 kts | 358° |
| 2026-04-17 08:37 | 44.27008 | 9.16776 | 5892 ft | 229 kts | 358° |
| 2026-04-17 08:37 | 44.28599 | 9.16719 | 5589 ft | 229 kts | 358° |
| 2026-04-17 08:37 | 44.30194 | 9.16660 | 5269 ft | 229 kts | 358° |
| 2026-04-17 08:37 | 44.31789 | 9.16598 | 4967 ft | 229 kts | 358° |
| 2026-04-17 08:38 | 44.33321 | 9.16074 | 4535 ft | 233 kts | 327° |
| 2026-04-17 08:38 | 44.34337 | 9.14333 | 3974 ft | 231 kts | 297° |
| 2026-04-17 08:38 | 44.35122 | 9.12465 | 3849 ft | 223 kts | 310° |
| 2026-04-17 08:38 | 44.36133 | 9.10812 | 3618 ft | 225 kts | 300° |
| 2026-04-17 08:39 | 44.36538 | 9.08720 | 3312 ft | 216 kts | 278° |
| 2026-04-17 08:39 | 44.36780 | 9.06776 | 3122 ft | 190 kts | 287° |
| 2026-04-17 08:39 | 44.37165 | 9.05114 | 2906 ft | 171 kts | 289° |
| 2026-04-17 08:39 | 44.37473 | 9.03567 | 2688 ft | 160 kts | 285° |
| 2026-04-17 08:40 | 44.37746 | 9.02097 | 2483 ft | 152 kts | 287° |
| 2026-04-17 08:40 | 44.38027 | 9.00713 | 2265 ft | 145 kts | 288° |
| 2026-04-17 08:40 | 44.38285 | 8.99418 | 2113 ft | 136 kts | 287° |
| 2026-04-17 08:40 | 44.38527 | 8.98178 | 1905 ft | 130 kts | 288° |
| 2026-04-17 08:41 | 44.38772 | 8.96949 | 1727 ft | 131 kts | 288° |
| 2026-04-17 08:41 | 44.39012 | 8.95722 | 1518 ft | 132 kts | 289° |
| 2026-04-17 08:41 | 44.39255 | 8.94483 | 1352 ft | 133 kts | 289° |
| 2026-04-17 08:41 | 44.39510 | 8.93228 | 1173 ft | 134 kts | 289° |
| 2026-04-17 08:42 | 44.39749 | 8.91987 | 973 ft | 131 kts | 289° |
| 2026-04-17 08:42 | 44.39994 | 8.90747 | 808 ft | 132 kts | 287° |
| 2026-04-17 08:42 | 44.40203 | 8.89525 | 624 ft | 125 kts | 284° |
| 2026-04-17 08:42 | 44.40399 | 8.88350 | 448 ft | 122 kts | 284° |
| 2026-04-17 08:43 | 44.40610 | 8.87193 | 283 ft | 125 kts | 286° |
| 2026-04-17 08:43 | 44.40836 | 8.86019 | 108 ft | 124 kts | 284° |
| 2026-04-17 08:43 | 44.41051 | 8.84912 | 18 ft | 105 kts | 285° |
| 2026-04-17 08:43 | 44.41201 | 8.84152 | 23 ft | 60 kts | 285° |
| 2026-04-17 08:44 | 44.41267 | 8.83852 | 19 ft | 21 kts | 303° |
| 2026-04-17 08:44 | 44.41350 | 8.83761 | 18 ft | 10 kts | 357° |
| 2026-04-17 08:44 | 44.41415 | 8.83790 | 21 ft | 11 kts | 53° |
| 2026-04-17 08:44 | 44.41404 | 8.83889 | 19 ft | 9 kts | 101° |
| 2026-04-17 08:45 | 44.41386 | 8.83988 | 19 ft | 12 kts | 105° |
| 2026-04-17 08:45 | 44.41362 | 8.84111 | 18 ft | 14 kts | 105° |
| 2026-04-17 08:45 | 44.41334 | 8.84258 | 19 ft | 17 kts | 105° |
| 2026-04-17 08:45 | 44.41306 | 8.84403 | 19 ft | 13 kts | 105° |
| 2026-04-17 08:46 | 44.41281 | 8.84533 | 21 ft | 15 kts | 105° |
| 2026-04-17 08:46 | 44.41250 | 8.84685 | 19 ft | 17 kts | 105° |
| 2026-04-17 08:46 | 44.41222 | 8.84826 | 20 ft | 12 kts | 105° |
| 2026-04-17 08:46 | 44.41250 | 8.84923 | 19 ft | 13 kts | 19° |
| 2026-04-17 08:47 | 44.41324 | 8.84953 | 19 ft | 10 kts | 20° |
| 2026-04-17 08:47 | 44.41347 | 8.85008 | 20 ft | 4 kts | 49° |
| 2026-04-17 08:47 | 44.41384 | 8.85026 | 20 ft | 7 kts | 15° |
| 2026-04-17 08:47 | 44.41409 | 8.85035 | 19 ft | 2 kts | 14° |
| 2026-04-17 08:48 | 44.41413 | 8.85037 | 19 ft | 0 kts | 14° |
| 2026-04-17 08:48 | 44.39678 | 8.92350 | 1024 ft | 132 kts | 288° |
| 2026-04-17 08:48 | 44.39918 | 8.91134 | 882 ft | 133 kts | 288° |
| 2026-04-17 08:49 | 44.40147 | 8.89871 | 672 ft | 128 kts | 285° |
| 2026-04-17 08:49 | 44.39534 | 8.93105 | 1177 ft | 130 kts | 289° |
| 2026-04-17 08:50 | 44.39732 | 8.92074 | 1008 ft | 131 kts | 289° |
| 2026-04-17 08:51 | 44.39982 | 8.90809 | 841 ft | 132 kts | 286° |
| 2026-04-17 08:51 | 44.40191 | 8.89598 | 645 ft | 126 kts | 284° |
| 2026-04-17 08:51 | 44.40390 | 8.88402 | 471 ft | 122 kts | 284° |
| 2026-04-17 08:51 | 44.40607 | 8.87208 | 296 ft | 125 kts | 286° |
| 2026-04-17 08:52 | 44.40838 | 8.86009 | 120 ft | 124 kts | 284° |
| 2026-04-17 08:52 | 44.41043 | 8.84956 | 35 ft | 107 kts | 285° |
| 2026-04-17 08:52 | 44.40868 | 8.85854 | 101 ft | 123 kts | 284° |
| 2026-04-17 08:52 | 44.41077 | 8.84783 | 35 ft | 100 kts | 285° |
| 2026-04-17 08:53 | 44.41212 | 8.84099 | 37 ft | 53 kts | 285° |
| 2026-04-17 08:53 | 44.41269 | 8.83811 | 36 ft | 14 kts | 286° |
| 2026-04-17 08:53 | 44.41274 | 8.83788 | 19 ft | 6 kts | 286° |